Newark Liberty International Airport
KEWR : now visible

Airfield :











YOU CAN JOIN US ON...

 
LOGIN :

Register | Disclaimer

   EN    FR    IT 

 









Legend :    VFR   Marginal VFR   IFR   Intensive IFR   Very Intensive IFR
Visi :
Ceiling :
>= 8 km
>= 3000ft
5 to 8 km
1000 to 3000 ft
1500m to 5 km
500 to 1000 ft
800 to 1500m
200 to 500 ft
< 800m
< 200 ft
Symbols :   Thunderstorms  Fog  Heavy snow  Heavy precipitations  Wind > 20 kt






- Airport Elevation : 18 ft
- IATA code : EWR


KEWR - Newark Liberty International

CURRENT METAR :
  • 061139Z 25007KT 8SM SCT008 BKN011 23/21 A2979 RMK AO2 T02330211

EXPIRED METARs :
  • 061121Z 24005KT 8SM BKN007 23/21 A2979 RMK AO2 T02280211
  • 061051Z 23003KT 7SM SCT007 23/22 A2979 RMK AO2 SLP088 T02280217
  • 060951Z 20003KT 9SM SCT009 SCT110 BKN250 22/21 A2979 RMK AO2 SLP088 T02170211

TAF KEWR
Valid from the 06 at 12:00 until the 07 at 18:00 UTC


061139Z 0612/0718 28006KT P6SM SCT008 SCT150
TEMPO 0612/0613 BKN008
FM061500 25010KT P6SM FEW020 SCT060
FM061900 27013G21KT P6SM VCTS BKN050CB
FM062100 30016G24KT P6SM SCT060 SCT100
FM062300 32012G20KT P6SM FEW060 FEW100
FM070400 33011KT P6SM FEW060 FEW100
FM071200 34012G19KT P6SM SKC
KZNY FIR / North America



MET'MAP, your aeronautical weather chart ! - Copyright ORBIFLY December 2007 - Disclaimer

ORBIFLY MET'MAP TEAM :

Programming & Development : Alexandra Zaïnal
Concept & original design : Baudouin d'Aumeries
Assistance for programming : Marc-Olivier Méhu
Technical & hardware support : Manuel Goepfert

Contact : metmap@orbifly.com




SOURCES & CREDITS :

   NOAA       Earth
Advisory